Terminal Aerodrome Forecast
Issued by NWS Wakefield, VA

Home | Current Version | Previous Version | Text Only | Print | Product List | Glossary On
Versions: 1 2 3 4 5 6 7 8 9 10 11 12 13 14 15
000
FTUS41 KAKQ 281152 RRB
TAFRIC
TAF
KRIC 281152Z 2812/0112 16004KT P6SM SCT040 SCT100
     FM281400 19005KT P6SM SCT150
     FM281800 20009KT P6SM BKN100
     FM010300 20009KT 5SM -SHRA BR OVC040
     FM010600 20010KT 3SM BR OVC008=

USA.gov is the U.S. government's official web portal to all federal, state and local government web resources and services.